createdAt,value
2022-10-15T00:00:22.609Z,13.50
2022-10-15T00:05:24.449Z,13.50
2022-10-15T00:10:26.169Z,13.50
2022-10-15T00:15:28.258Z,13.50
2022-10-15T00:20:30.219Z,13.50
2022-10-15T00:25:31.962Z,13.50
2022-10-15T00:30:33.740Z,13.50
2022-10-15T00:35:35.474Z,13.40
2022-10-15T00:40:37.356Z,13.50
2022-10-15T00:45:39.189Z,13.40
2022-10-15T00:50:41.103Z,13.40
2022-10-15T00:55:43.708Z,13.50
2022-10-15T01:00:45.669Z,13.40
2022-10-15T01:05:50.648Z,13.40
2022-10-15T01:10:55.462Z,13.50
2022-10-15T01:16:05.157Z,13.40
2022-10-15T01:21:22.133Z,13.50
2022-10-15T01:27:07.817Z,13.40
2022-10-15T01:32:21.035Z,13.40
2022-10-15T01:37:41.514Z,13.40
2022-10-15T01:42:46.573Z,13.40
2022-10-15T01:47:54.428Z,13.40
2022-10-15T01:52:58.881Z,13.40
2022-10-15T01:58:01.721Z,13.40
2022-10-15T02:03:04.529Z,13.40
2022-10-15T02:08:43.322Z,13.40
2022-10-15T02:13:57.170Z,13.40
2022-10-15T02:19:25.105Z,13.40
2022-10-15T02:24:33.259Z,13.40
2022-10-15T02:29:38.883Z,13.40
2022-10-15T02:34:41.387Z,13.40
2022-10-15T02:39:44.413Z,13.40
2022-10-15T02:44:46.393Z,13.50
2022-10-15T02:49:48.229Z,13.50
2022-10-15T02:54:50.427Z,13.50
2022-10-15T02:59:52.724Z,13.50
2022-10-15T03:04:54.795Z,13.50
2022-10-15T03:09:58.398Z,13.50
2022-10-15T03:15:00.305Z,13.50
2022-10-15T03:20:03.141Z,13.50
2022-10-15T03:25:07.689Z,13.50
2022-10-15T03:30:10.242Z,13.50
2022-10-15T03:35:13.260Z,13.60
2022-10-15T03:40:15.317Z,13.50
2022-10-15T03:45:20.092Z,13.40
2022-10-15T03:50:28.101Z,13.30
2022-10-15T03:55:30.160Z,13.30
2022-10-15T04:00:32.040Z,13.30
2022-10-15T04:05:38.435Z,13.40
2022-10-15T04:10:44.187Z,13.40
2022-10-15T04:15:46.349Z,13.40
2022-10-15T04:20:49.405Z,13.40
2022-10-15T04:26:00.173Z,13.40
2022-10-15T04:31:02.764Z,13.40
2022-10-15T04:36:08.300Z,13.40
2022-10-15T04:41:33.319Z,13.50
2022-10-15T04:46:39.586Z,13.50
2022-10-15T04:52:05.445Z,13.50
2022-10-15T04:57:17.621Z,13.50
2022-10-15T05:02:20.398Z,13.50
2022-10-15T05:07:28.502Z,13.50
2022-10-15T05:12:30.652Z,13.60
2022-10-15T05:17:32.442Z,13.60
2022-10-15T05:22:35.040Z,13.60
2022-10-15T05:27:37.913Z,13.60
2022-10-15T05:32:40.630Z,13.60
2022-10-15T05:37:46.142Z,13.70
2022-10-15T05:48:00.897Z,13.70
2022-10-15T05:53:02.776Z,13.70
2022-10-15T05:58:31.978Z,13.80
2022-10-15T06:03:37.101Z,13.80
2022-10-15T06:08:38.850Z,13.80
2022-10-15T06:13:42.105Z,13.80
2022-10-15T06:18:43.812Z,13.90
2022-10-15T06:23:45.824Z,14.00
2022-10-15T06:28:47.668Z,14.00
2022-10-15T06:33:49.538Z,14.00
2022-10-15T06:38:51.440Z,14.10
2022-10-15T06:43:54.451Z,14.20
2022-10-15T06:48:56.495Z,14.20
2022-10-15T06:53:58.669Z,14.20
2022-10-15T06:59:00.399Z,14.20
2022-10-15T07:04:02.135Z,14.10
2022-10-15T07:09:05.413Z,14.10
2022-10-15T07:14:07.255Z,14.00
2022-10-15T07:19:09.728Z,14.20
2022-10-15T07:24:12.052Z,14.40
2022-10-15T07:29:13.961Z,14.60
2022-10-15T07:34:15.705Z,14.80
2022-10-15T07:39:19.484Z,14.80
2022-10-15T07:44:21.299Z,15.00
2022-10-15T07:49:23.079Z,15.10
2022-10-15T07:54:24.880Z,15.10
2022-10-15T07:59:26.640Z,15.30
2022-10-15T08:04:28.702Z,15.50
2022-10-15T08:09:30.441Z,15.50
2022-10-15T08:14:36.090Z,15.50
2022-10-15T08:19:37.865Z,15.50
2022-10-15T08:24:39.587Z,15.60
2022-10-15T08:29:41.347Z,15.80
2022-10-15T08:34:43.135Z,15.80
2022-10-15T08:39:44.870Z,15.90
2022-10-15T08:44:51.011Z,16.00
2022-10-15T08:49:56.540Z,16.30
2022-10-15T08:55:01.645Z,16.70
2022-10-15T09:00:38.409Z,17.10
2022-10-15T09:05:55.445Z,17.20
2022-10-15T09:11:06.247Z,17.10
2022-10-15T09:16:40.085Z,17.10
2022-10-15T09:21:42.848Z,17.30
2022-10-15T09:26:51.197Z,17.40
2022-10-15T09:32:14.601Z,17.50
2022-10-15T09:37:50.428Z,17.70
2022-10-15T09:42:52.865Z,17.80
2022-10-15T09:48:00.237Z,18.00
2022-10-15T09:53:36.527Z,18.10
2022-10-15T09:58:56.943Z,18.40
2022-10-15T10:04:20.176Z,18.70
2022-10-15T10:09:49.570Z,18.80
2022-10-15T10:14:57.364Z,18.60
2022-10-15T10:20:19.549Z,18.50
2022-10-15T10:25:27.811Z,18.60
2022-10-15T10:30:34.079Z,18.70
2022-10-15T10:35:45.926Z,18.80
2022-10-15T10:40:52.474Z,19.00
2022-10-15T10:46:04.994Z,19.10
2022-10-15T10:51:21.032Z,19.30
2022-10-15T10:56:28.713Z,19.40
2022-10-15T11:01:30.585Z,19.50
2022-10-15T11:06:47.256Z,19.60
2022-10-15T11:12:00.525Z,19.50
2022-10-15T11:17:17.441Z,19.50
2022-10-15T11:23:00.759Z,19.40
2022-10-15T11:28:17.535Z,19.40
2022-10-15T11:33:42.007Z,19.40
2022-10-15T11:39:21.318Z,19.50
2022-10-15T11:44:32.062Z,19.70
2022-10-15T11:50:06.228Z,19.80
2022-10-15T11:55:21.680Z,19.50
2022-10-15T12:00:39.310Z,19.50
2022-10-15T12:05:51.966Z,19.30
2022-10-15T12:11:31.392Z,19.20
2022-10-15T12:16:39.862Z,19.40
2022-10-15T12:21:56.768Z,19.40
2022-10-15T12:27:25.321Z,19.60
2022-10-15T12:32:40.021Z,19.60
2022-10-15T12:37:44.545Z,19.60
2022-10-15T12:42:50.803Z,19.70
2022-10-15T12:48:04.754Z,19.70
2022-10-15T12:53:24.816Z,19.50
2022-10-15T12:58:35.164Z,19.50
2022-10-15T13:03:41.414Z,19.70
2022-10-15T13:08:46.456Z,19.60
2022-10-15T13:13:50.817Z,19.60
2022-10-15T13:18:55.588Z,19.50
2022-10-15T13:23:57.301Z,19.70
2022-10-15T13:28:59.178Z,19.70
2022-10-15T13:34:26.825Z,19.40
2022-10-15T13:39:39.937Z,19.30
2022-10-15T13:44:43.135Z,19.40
2022-10-15T13:49:44.895Z,19.30
2022-10-15T13:54:46.995Z,19.20
2022-10-15T13:59:48.805Z,19.20
2022-10-15T14:04:50.533Z,19.20
2022-10-15T14:09:52.681Z,19.30
2022-10-15T14:14:54.446Z,19.40
2022-10-15T14:20:26.289Z,19.20
2022-10-15T14:25:28.261Z,19.40
2022-10-15T14:30:36.730Z,19.20
2022-10-15T14:35:38.970Z,19.10
2022-10-15T14:40:40.832Z,18.90
2022-10-15T14:45:53.909Z,18.80
2022-10-15T14:51:00.227Z,18.60
2022-10-15T14:56:25.562Z,18.70
2022-10-15T15:01:28.012Z,18.90
2022-10-15T15:06:30.446Z,18.80
2022-10-15T15:11:32.219Z,18.60
2022-10-15T15:16:33.929Z,18.50
2022-10-15T15:21:35.758Z,18.30
2022-10-15T15:26:37.565Z,18.30
2022-10-15T15:31:39.576Z,18.20
2022-10-15T15:36:41.281Z,18.10
2022-10-15T15:41:43.025Z,18.10
2022-10-15T15:46:44.742Z,17.90
2022-10-15T15:51:46.468Z,17.80
2022-10-15T15:56:48.231Z,17.70
2022-10-15T16:01:50.030Z,17.50
2022-10-15T16:06:51.829Z,17.30
2022-10-15T16:11:53.728Z,17.20
2022-10-15T16:16:55.496Z,17.00
2022-10-15T16:21:57.270Z,16.90
2022-10-15T16:26:59.401Z,16.80
2022-10-15T16:32:01.199Z,16.70
2022-10-15T16:37:03.101Z,16.50
2022-10-15T16:42:05.167Z,16.50
2022-10-15T16:47:06.912Z,16.30
2022-10-15T16:52:09.081Z,16.20
2022-10-15T16:57:10.840Z,16.10
2022-10-15T17:02:12.546Z,16.10
2022-10-15T17:07:14.759Z,15.90
2022-10-15T17:12:16.559Z,15.90
2022-10-15T17:17:18.847Z,15.80
2022-10-15T17:22:21.043Z,15.70
2022-10-15T17:27:22.833Z,15.60
2022-10-15T17:32:25.653Z,15.50
2022-10-15T17:37:27.835Z,15.50
2022-10-15T17:42:29.736Z,15.40
2022-10-15T17:47:31.939Z,15.30
2022-10-15T17:52:33.887Z,15.20
2022-10-15T17:57:35.823Z,15.20
2022-10-15T18:02:37.945Z,15.10
2022-10-15T18:07:39.947Z,15.00
2022-10-15T18:12:41.713Z,15.00
2022-10-15T18:17:43.940Z,15.00
2022-10-15T18:22:45.841Z,15.00
2022-10-15T18:27:47.632Z,14.90
2022-10-15T18:32:50.454Z,14.90
2022-10-15T18:37:54.037Z,14.90
2022-10-15T18:42:55.790Z,14.80
2022-10-15T18:47:57.888Z,14.80
2022-10-15T18:53:00.644Z,14.80
2022-10-15T18:58:04.746Z,14.80
2022-10-15T19:03:11.891Z,14.80
2022-10-15T19:08:16.902Z,14.80
2022-10-15T19:13:22.130Z,14.80
2022-10-15T19:18:24.088Z,14.80
2022-10-15T19:23:25.950Z,14.80
2022-10-15T19:28:28.832Z,14.80
2022-10-15T19:33:31.634Z,14.80
2022-10-15T19:38:33.979Z,14.80
2022-10-15T19:43:36.399Z,14.90
2022-10-15T19:48:38.613Z,15.00
2022-10-15T19:53:40.979Z,15.10
2022-10-15T19:58:44.023Z,15.10
2022-10-15T20:03:47.174Z,15.20
2022-10-15T20:08:49.043Z,15.20
2022-10-15T20:13:51.307Z,15.30
2022-10-15T20:18:53.015Z,15.30
2022-10-15T20:23:54.773Z,15.40
2022-10-15T20:28:56.646Z,15.40
2022-10-15T20:33:59.041Z,15.40
2022-10-15T20:39:01.855Z,15.40
2022-10-15T20:44:04.881Z,15.30
2022-10-15T20:54:19.902Z,15.20
2022-10-15T20:59:22.620Z,15.00
2022-10-15T21:04:25.981Z,15.00
2022-10-15T21:09:27.755Z,15.00
2022-10-15T21:14:29.549Z,15.00
2022-10-15T21:19:31.244Z,15.00
2022-10-15T21:24:35.056Z,14.90
2022-10-15T21:29:36.868Z,14.90
2022-10-15T21:39:45.394Z,14.70
2022-10-15T21:44:47.171Z,14.70
2022-10-15T21:49:48.889Z,14.70
2022-10-15T21:54:50.640Z,14.70
2022-10-15T21:59:52.418Z,14.80
2022-10-15T22:04:54.158Z,14.70
2022-10-15T22:09:55.945Z,14.70
2022-10-15T22:14:57.699Z,14.70
2022-10-15T22:19:59.440Z,14.70
2022-10-15T22:25:01.211Z,14.70
2022-10-15T22:30:04.944Z,14.70
2022-10-15T22:35:07.078Z,14.70
2022-10-15T22:40:09.310Z,14.70
2022-10-15T22:45:11.073Z,14.70
2022-10-15T22:50:12.780Z,14.70
2022-10-15T22:55:14.556Z,14.60
2022-10-15T23:00:16.348Z,14.50
2022-10-15T23:05:18.177Z,14.50
2022-10-15T23:10:19.890Z,14.40
2022-10-15T23:15:22.063Z,14.40
2022-10-15T23:20:23.771Z,14.40
2022-10-15T23:25:25.462Z,14.40
2022-10-15T23:30:27.166Z,14.40
2022-10-15T23:35:29.033Z,14.50
2022-10-15T23:40:31.007Z,14.50
2022-10-15T23:45:34.770Z,14.60
2022-10-15T23:50:39.326Z,14.70
2022-10-15T23:55:41.437Z,14.70
